Aviation Digital Data Service (ADDS)

Output produced by METARs form (0827 UTC 04 July 2015)
found at http://aviationweather.gov/adds/metars/
 
KJXN 040523Z 0406/0506 28004KT P6SM SCT040